Time;durP1;ratioP1;P1;durP2;ratioP2;P2;SDS_P1;SDS_P2;PMS_P1;PMS_P2;Temp;Humidity;BMP_temperature;BMP_pressure;BME280_temperature;BME280_humidity;BME280_pressure;Samples;Min_cycle;Max_cycle;Signal;HPM_P1;HPM_P2
2023/06/26 00:02:19;;;;;;;10.95;10.65;;;19.30;99.90;;;;;;5044513;28;20242;-80
2023/06/26 00:04:53;;;;;;;10.85;10.55;;;19.30;99.90;;;;;;5050959;28;20246;-79
2023/06/26 00:07:22;;;;;;;11.10;10.80;;;19.20;99.90;;;;;;5052628;28;20221;-80
2023/06/26 00:09:50;;;;;;;10.70;10.40;;;19.10;99.90;;;;;;5049678;28;20311;-80
2023/06/26 00:12:18;;;;;;;10.98;10.68;;;19.10;99.90;;;;;;5045235;28;20263;-81
2023/06/26 00:14:51;;;;;;;10.82;10.52;;;19.00;99.90;;;;;;5044077;28;20243;-80
2023/06/26 00:17:20;;;;;;;10.95;10.65;;;19.00;99.90;;;;;;5044221;28;20322;-80
2023/06/26 00:19:48;;;;;;;11.02;10.73;;;19.00;99.90;;;;;;5050015;28;20235;-80
2023/06/26 00:22:15;;;;;;;10.90;10.60;;;19.00;99.90;;;;;;5055578;28;20239;-80
2023/06/26 00:24:44;;;;;;;10.90;10.60;;;18.90;99.90;;;;;;5050410;28;20247;-80
2023/06/26 00:27:12;;;;;;;10.90;10.60;;;18.80;99.90;;;;;;5046903;28;20234;-80
2023/06/26 00:29:43;;;;;;;10.98;10.68;;;18.80;99.90;;;;;;5048164;28;20299;-81
2023/06/26 00:32:12;;;;;;;10.90;10.60;;;18.70;99.90;;;;;;5048059;28;20232;-80
2023/06/26 00:34:39;;;;;;;11.00;10.70;;;18.70;99.90;;;;;;5051114;28;20231;-80
2023/06/26 00:37:09;;;;;;;10.98;10.68;;;18.70;99.90;;;;;;5053193;28;20204;-80
2023/06/26 00:39:37;;;;;;;10.93;10.63;;;18.70;99.90;;;;;;5054777;28;20211;-80
2023/06/26 00:42:08;;;;;;;11.10;10.80;;;18.60;99.90;;;;;;5054200;28;20236;-80
2023/06/26 00:44:37;;;;;;;10.90;10.60;;;18.60;99.90;;;;;;5054315;28;20232;-80
2023/06/26 00:47:05;;;;;;;11.13;10.82;;;18.50;99.90;;;;;;5055133;28;20254;-80
2023/06/26 00:49:45;;;;;;;10.93;10.63;;;18.50;99.90;;;;;;5057923;28;20267;-80
2023/06/26 00:52:13;;;;;;;11.10;10.80;;;18.50;99.90;;;;;;5056396;28;20259;-80
2023/06/26 00:54:41;;;;;;;10.93;10.63;;;18.50;99.90;;;;;;5054562;28;20274;-80
2023/06/26 00:57:09;;;;;;;10.85;10.55;;;18.50;99.90;;;;;;5049467;28;20220;-81
2023/06/26 00:59:37;;;;;;;10.90;10.60;;;18.50;99.90;;;;;;5046892;28;20246;-80
2023/06/26 01:02:05;;;;;;;10.88;10.57;;;18.40;99.90;;;;;;5045604;28;20236;-80
2023/06/26 01:04:37;;;;;;;10.90;10.60;;;18.40;99.90;;;;;;5044781;28;20245;-81
2023/06/26 01:07:07;;;;;;;10.80;10.50;;;18.30;99.90;;;;;;5044722;28;20304;-80
2023/06/26 01:09:37;;;;;;;10.77;10.48;;;18.20;99.90;;;;;;5045246;28;20251;-81
2023/06/26 01:12:06;;;;;;;10.80;10.50;;;18.10;99.90;;;;;;5045001;28;20232;-80
2023/06/26 01:14:39;;;;;;;10.90;10.60;;;18.10;99.90;;;;;;5045858;28;20299;-80
2023/06/26 01:17:11;;;;;;;10.70;10.40;;;18.10;99.90;;;;;;5046114;28;20263;-80
2023/06/26 01:19:43;;;;;;;10.70;10.40;;;18.00;99.90;;;;;;5044929;28;20274;-81
2023/06/26 01:22:18;;;;;;;10.80;10.50;;;18.00;99.90;;;;;;5047552;28;20236;-81
2023/06/26 01:25:04;;;;;;;10.70;10.40;;;18.00;99.90;;;;;;5044220;28;20248;-81
2023/06/26 01:27:34;;;;;;;10.98;10.68;;;17.90;99.90;;;;;;5044655;28;20310;-81
2023/06/26 01:30:05;;;;;;;11.00;10.70;;;17.90;99.90;;;;;;5045446;28;20255;-81
2023/06/26 01:32:34;;;;;;;10.75;10.45;;;17.90;99.90;;;;;;5045315;28;20295;-80
2023/06/26 01:35:03;;;;;;;10.70;10.40;;;17.90;99.90;;;;;;5044508;28;20224;-81
2023/06/26 01:37:30;;;;;;;10.90;10.60;;;17.80;99.90;;;;;;5045595;28;20204;-81
2023/06/26 01:39:59;;;;;;;10.73;10.43;;;17.80;99.90;;;;;;5044293;28;20299;-81
2023/06/26 01:42:31;;;;;;;10.70;10.40;;;17.80;99.90;;;;;;5044587;28;20314;-81
2023/06/26 01:45:06;;;;;;;10.88;10.57;;;17.80;99.90;;;;;;5048415;28;20227;-81
2023/06/26 01:47:39;;;;;;;10.80;10.50;;;17.70;99.90;;;;;;5051278;28;20223;-81
2023/06/26 01:50:15;;;;;;;10.80;10.50;;;17.70;99.90;;;;;;5049319;28;20243;-81
2023/06/26 01:52:49;;;;;;;10.80;10.50;;;17.70;99.90;;;;;;5050511;28;20351;-81
2023/06/26 01:55:25;;;;;;;10.68;10.38;;;17.70;99.90;;;;;;5059455;28;20238;-78
2023/06/26 01:58:01;;;;;;;10.45;10.15;;;17.70;99.90;;;;;;5056488;28;20223;-78
2023/06/26 02:00:33;;;;;;;10.73;10.43;;;17.70;99.90;;;;;;5059435;28;20211;-79
2023/06/26 02:03:00;;;;;;;10.50;10.20;;;17.70;99.90;;;;;;5058747;28;20264;-81
2023/06/26 02:05:30;;;;;;;10.60;10.30;;;17.70;99.90;;;;;;5049654;28;20271;-81
2023/06/26 02:07:58;;;;;;;10.65;10.35;;;17.60;99.90;;;;;;5057193;28;20230;-80
2023/06/26 02:10:29;;;;;;;10.52;10.23;;;17.60;99.90;;;;;;5051506;28;20239;-81
2023/06/26 02:12:56;;;;;;;10.60;10.30;;;17.60;99.90;;;;;;5045597;28;20239;-81
2023/06/26 02:15:26;;;;;;;10.60;10.30;;;17.60;99.90;;;;;;5045924;28;20235;-80
2023/06/26 02:17:57;;;;;;;10.40;10.10;;;17.60;99.90;;;;;;5044755;28;20323;-80
2023/06/26 02:20:25;;;;;;;10.70;10.40;;;17.50;99.90;;;;;;5048607;28;20235;-80
2023/06/26 02:22:52;;;;;;;10.50;10.20;;;17.50;99.90;;;;;;5058735;28;20231;-80
2023/06/26 02:25:20;;;;;;;10.65;10.35;;;17.50;99.90;;;;;;5045661;28;20237;-81
2023/06/26 02:27:48;;;;;;;10.80;10.50;;;17.40;99.90;;;;;;5043532;28;20254;-80
2023/06/26 02:30:16;;;;;;;10.70;10.40;;;17.40;99.90;;;;;;5044835;28;20305;-80
2023/06/26 02:32:45;;;;;;;10.70;10.40;;;17.40;99.90;;;;;;5056273;28;20358;-80
2023/06/26 02:35:14;;;;;;;10.80;10.50;;;17.40;99.90;;;;;;5054158;28;20239;-81
2023/06/26 02:37:44;;;;;;;10.63;10.32;;;17.30;99.90;;;;;;5046086;28;20283;-80
2023/06/26 02:40:12;;;;;;;10.88;10.57;;;17.30;99.90;;;;;;5043343;28;20239;-80
2023/06/26 02:42:47;;;;;;;10.75;10.45;;;17.20;99.90;;;;;;5047816;28;20235;-80
2023/06/26 02:45:15;;;;;;;11.07;10.77;;;17.20;99.90;;;;;;5042100;28;20235;-80
2023/06/26 02:47:44;;;;;;;11.18;10.80;;;17.10;99.90;;;;;;5043481;28;20283;-80
2023/06/26 02:50:14;;;;;;;11.30;10.90;;;17.10;99.90;;;;;;5041909;28;20319;-80
2023/06/26 02:52:41;;;;;;;11.30;10.90;;;17.00;99.90;;;;;;5041728;28;20246;-82
2023/06/26 02:55:09;;;;;;;11.30;10.90;;;17.00;99.90;;;;;;5042888;28;20283;-81
2023/06/26 02:57:39;;;;;;;10.77;10.48;;;17.00;99.90;;;;;;5043299;28;20258;-80
2023/06/26 03:00:09;;;;;;;11.23;10.88;;;16.90;99.90;;;;;;5043487;28;20230;-80
2023/06/26 03:02:38;;;;;;;11.23;10.90;;;16.90;99.90;;;;;;5043227;28;20239;-81
2023/06/26 03:05:06;;;;;;;11.23;10.85;;;16.90;99.90;;;;;;5042896;28;20322;-81
2023/06/26 03:07:37;;;;;;;11.18;10.85;;;16.90;99.90;;;;;;5042555;28;20241;-80
2023/06/26 03:10:08;;;;;;;10.85;10.55;;;16.80;99.90;;;;;;5042049;28;20242;-78
2023/06/26 03:12:35;;;;;;;11.00;10.70;;;16.80;99.90;;;;;;5040594;28;20239;-78
2023/06/26 03:15:06;;;;;;;10.90;10.60;;;16.80;99.90;;;;;;5041515;28;20267;-79
2023/06/26 03:17:33;;;;;;;10.80;10.50;;;16.80;99.90;;;;;;5041691;28;20231;-79
2023/06/26 03:20:02;;;;;;;11.10;10.80;;;16.80;99.90;;;;;;5042370;28;20242;-78
2023/06/26 09:26:20;;;;;;;10.98;10.68;;;31.00;99.90;;;;;;5042689;28;20262;-80
2023/06/26 09:28:50;;;;;;;11.05;10.75;;;31.00;99.90;;;;;;5043504;28;20243;-80
2023/06/26 09:31:20;;;;;;;10.93;10.63;;;31.10;99.90;;;;;;5045763;28;20239;-81
2023/06/26 09:33:50;;;;;;;10.80;10.50;;;31.30;99.90;;;;;;5045168;28;20254;-80
2023/06/26 09:36:23;;;;;;;10.70;10.40;;;31.40;99.90;;;;;;5045733;28;20228;-80
2023/06/26 09:38:51;;;;;;;11.10;10.80;;;31.60;99.90;;;;;;5044822;28;20231;-82
2023/06/26 09:41:22;;;;;;;10.82;10.52;;;31.90;99.90;;;;;;5044494;28;20781;-81
2023/06/26 09:43:51;;;;;;;10.95;10.65;;;32.20;99.90;;;;;;5044142;28;20261;-81
2023/06/26 09:46:25;;;;;;;11.10;10.80;;;32.30;99.90;;;;;;5045038;28;20318;-81
2023/06/26 09:49:02;;;;;;;11.18;10.88;;;32.20;99.90;;;;;;5045551;28;20295;-81
2023/06/26 09:51:32;;;;;;;11.07;10.77;;;31.80;99.90;;;;;;5045437;28;20238;-81
2023/06/26 09:54:00;;;;;;;11.10;10.80;;;31.60;99.90;;;;;;5043581;28;20251;-80
2023/06/26 09:56:31;;;;;;;11.30;11.00;;;31.70;99.90;;;;;;5045108;28;20235;-81
2023/06/26 09:59:02;;;;;;;11.35;11.05;;;31.80;99.90;;;;;;5044917;28;20243;-80
2023/06/26 10:01:30;;;;;;;11.35;11.05;;;31.90;99.90;;;;;;5045240;28;20306;-81
2023/06/26 10:03:58;;;;;;;11.00;10.70;;;32.20;99.90;;;;;;5043966;28;20245;-81
2023/06/26 10:06:33;;;;;;;11.15;10.85;;;32.20;99.90;;;;;;5043741;28;20231;-81
2023/06/26 10:09:05;;;;;;;11.45;11.15;;;32.10;99.90;;;;;;5043968;28;20246;-81
2023/06/26 10:11:44;;;;;;;11.43;11.13;;;32.10;99.90;;;;;;5044170;28;20238;-82
2023/06/26 10:14:13;;;;;;;11.55;11.23;;;32.30;99.90;;;;;;5043614;28;20223;-82
2023/06/26 10:16:44;;;;;;;11.88;11.48;;;32.60;99.90;;;;;;5043437;28;20278;-81
2023/06/26 10:19:14;;;;;;;11.52;11.23;;;33.00;99.90;;;;;;5046233;28;20251;-80
2023/06/26 10:21:43;;;;;;;11.23;10.93;;;33.30;99.90;;;;;;5046144;28;20251;-81
2023/06/26 10:24:14;;;;;;;11.15;10.85;;;33.30;99.90;;;;;;5046746;28;20315;-81
2023/06/26 10:26:48;;;;;;;11.30;11.00;;;33.20;99.90;;;;;;5045973;28;20239;-81
2023/06/26 10:29:19;;;;;;;11.45;11.15;;;33.30;99.90;;;;;;5045186;28;20237;-82
2023/06/26 10:31:51;;;;;;;11.30;11.00;;;33.30;99.90;;;;;;5043996;28;20235;-79
2023/06/26 10:34:19;;;;;;;11.45;11.15;;;33.00;99.90;;;;;;5043487;28;20247;-79
2023/06/26 10:36:51;;;;;;;11.18;10.88;;;32.50;99.90;;;;;;5042701;28;20231;-79
2023/06/26 10:39:19;;;;;;;11.35;11.05;;;32.50;99.90;;;;;;5043549;28;20254;-79
2023/06/26 10:41:48;;;;;;;11.38;11.07;;;32.60;99.90;;;;;;5043572;28;20224;-79
2023/06/26 10:44:18;;;;;;;11.30;11.00;;;32.80;99.90;;;;;;5043144;28;20259;-78
2023/06/26 10:46:53;;;;;;;11.00;10.70;;;32.90;99.90;;;;;;5046030;28;20231;-79
2023/06/26 10:49:21;;;;;;;10.95;10.65;;;33.00;99.90;;;;;;5049369;28;20230;-79
2023/06/26 10:51:51;;;;;;;10.90;10.60;;;33.00;99.90;;;;;;5049540;28;20230;-80
2023/06/26 10:54:21;;;;;;;10.77;10.48;;;33.00;99.90;;;;;;5044490;28;20313;-80
2023/06/26 10:56:52;;;;;;;11.00;10.70;;;33.10;99.90;;;;;;5045755;28;20227;-80
2023/06/26 10:59:23;;;;;;;11.32;11.02;;;33.30;99.90;;;;;;5043220;28;20254;-81
2023/06/26 11:01:57;;;;;;;11.18;10.88;;;33.60;99.90;;;;;;5043612;28;20327;-80
2023/06/26 11:04:39;;;;;;;11.38;11.07;;;33.70;99.90;;;;;;5042985;28;20247;-81
2023/06/26 11:07:19;;;;;;;11.30;11.00;;;33.70;99.90;;;;;;5042981;28;20241;-81
2023/06/26 11:09:58;;;;;;;11.25;10.95;;;33.30;99.90;;;;;;5043293;28;20237;-80
2023/06/26 11:12:39;;;;;;;11.23;10.93;;;33.30;99.90;;;;;;5043653;28;20237;-80
2023/06/26 11:15:12;;;;;;;10.88;10.57;;;33.60;99.90;;;;;;5042380;28;20262;-80
2023/06/26 11:17:41;;;;;;;11.35;11.05;;;33.60;99.90;;;;;;5046287;28;20223;-80
2023/06/26 11:20:11;;;;;;;11.38;11.07;;;33.80;99.90;;;;;;5043218;28;20237;-80
2023/06/26 11:22:40;;;;;;;11.20;10.90;;;33.90;99.90;;;;;;5041517;28;20334;-80
2023/06/26 11:25:09;;;;;;;11.00;10.70;;;33.70;99.90;;;;;;5041880;28;20227;-80
2023/06/26 11:27:42;;;;;;;11.10;10.80;;;33.50;99.90;;;;;;5043681;28;20223;-80
2023/06/26 11:30:12;;;;;;;11.68;11.27;;;33.20;99.90;;;;;;5042995;28;20711;-79
2023/06/26 11:32:40;;;;;;;11.50;11.10;;;33.20;99.90;;;;;;5042079;28;20231;-82
2023/06/26 11:35:09;;;;;;;11.20;10.90;;;33.50;99.90;;;;;;5044099;28;20234;-80
2023/06/26 11:37:39;;;;;;;11.23;10.93;;;33.90;99.90;;;;;;5044367;28;20230;-82
2023/06/26 11:40:26;;;;;;;11.30;11.00;;;34.10;99.90;;;;;;5044080;28;20344;-80
2023/06/26 11:42:56;;;;;;;10.90;10.60;;;34.10;99.90;;;;;;5043905;28;20293;-80
2023/06/26 11:45:23;;;;;;;11.27;10.98;;;34.40;99.90;;;;;;5043715;28;20243;-80
2023/06/26 11:47:58;;;;;;;11.20;10.90;;;34.70;99.90;;;;;;5045408;28;20259;-80
2023/06/26 11:50:26;;;;;;;11.23;10.93;;;35.10;99.90;;;;;;5047227;28;20261;-80
2023/06/26 11:53:01;;;;;;;11.23;10.93;;;35.00;99.90;;;;;;5054300;28;20235;-80
2023/06/26 11:55:43;;;;;;;11.18;10.88;;;35.20;99.90;;;;;;5052432;28;20227;-80
2023/06/26 11:58:15;;;;;;;11.20;10.90;;;35.20;99.90;;;;;;5052739;28;20298;-79
2023/06/26 12:00:45;;;;;;;11.25;10.95;;;35.20;99.90;;;;;;5053040;28;20231;-81
2023/06/26 12:03:18;;;;;;;11.00;10.70;;;34.70;99.90;;;;;;5047412;28;20231;-80
2023/06/26 12:05:47;;;;;;;11.10;10.80;;;35.10;99.90;;;;;;5052146;28;20226;-79
2023/06/26 12:08:17;;;;;;;10.90;10.60;;;35.20;99.90;;;;;;5054744;28;20234;-80
2023/06/26 12:10:46;;;;;;;10.98;10.68;;;35.20;99.90;;;;;;5055044;28;20240;-80
2023/06/26 12:13:15;;;;;;;10.90;10.60;;;35.20;99.90;;;;;;5054381;28;20327;-79
2023/06/26 12:15:45;;;;;;;10.95;10.65;;;35.20;99.90;;;;;;5054137;28;20220;-79
2023/06/26 12:18:13;;;;;;;11.23;10.93;;;35.20;99.90;;;;;;5056903;28;20215;-79
2023/06/26 12:20:44;;;;;;;11.50;11.20;;;35.10;99.90;;;;;;5053707;28;20236;-80
2023/06/26 12:23:14;;;;;;;11.18;10.88;;;35.30;99.90;;;;;;5046299;28;20238;-80
2023/06/26 12:25:43;;;;;;;11.20;10.90;;;35.40;99.90;;;;;;5046697;28;20239;-80
2023/06/26 12:28:23;;;;;;;11.30;11.00;;;35.30;99.90;;;;;;5045786;28;20247;-80
2023/06/26 12:31:17;;;;;;;10.80;10.50;;;35.30;99.90;;;;;;5046053;28;20242;-80
2023/06/26 12:33:48;;;;;;;11.40;11.10;;;35.20;99.90;;;;;;5045813;28;20232;-81
2023/06/26 12:36:16;;;;;;;11.40;11.10;;;35.20;99.90;;;;;;5045709;28;20227;-80
2023/06/26 12:38:47;;;;;;;10.85;10.55;;;35.40;99.90;;;;;;5045583;28;20235;-82
2023/06/26 12:41:16;;;;;;;10.90;10.60;;;35.60;99.90;;;;;;5044318;28;20307;-80
2023/06/26 12:43:54;;;;;;;10.95;10.65;;;35.60;99.90;;;;;;5046646;28;20235;-80
2023/06/26 12:46:23;;;;;;;10.85;10.55;;;35.70;99.90;;;;;;5049086;28;20231;-81
2023/06/26 12:48:59;;;;;;;10.80;10.50;;;35.80;99.90;;;;;;5048698;28;20239;-81
2023/06/26 12:51:30;;;;;;;10.50;10.20;;;35.80;99.90;;;;;;5048082;28;20243;-80
2023/06/26 12:54:00;;;;;;;10.60;10.30;;;36.10;99.90;;;;;;5047473;28;20227;-81
2023/06/26 12:56:30;;;;;;;10.43;10.13;;;36.10;99.90;;;;;;5046613;28;20220;-80
2023/06/26 12:59:03;;;;;;;10.80;10.50;;;36.00;99.90;;;;;;5047886;28;20227;-81
2023/06/26 13:01:36;;;;;;;10.90;10.60;;;36.10;99.90;;;;;;5047944;28;20235;-81
2023/06/26 13:04:05;;;;;;;10.93;10.63;;;36.20;99.90;;;;;;5046201;28;20250;-82
2023/06/26 13:06:34;;;;;;;10.60;10.30;;;36.40;99.70;;;;;;5048637;28;20223;-81
2023/06/26 13:09:04;;;;;;;10.70;10.40;;;36.70;99.90;;;;;;5047295;28;20292;-81
2023/06/26 13:11:35;;;;;;;10.88;10.57;;;36.20;99.90;;;;;;5047861;28;20251;-82
2023/06/26 13:14:08;;;;;;;10.90;10.60;;;35.90;99.90;;;;;;5047249;28;20254;-81
2023/06/26 13:16:36;;;;;;;10.60;10.30;;;35.70;99.90;;;;;;5051508;28;20220;-79
2023/06/26 13:19:09;;;;;;;11.00;10.70;;;35.50;99.90;;;;;;5051132;28;20246;-81
2023/06/26 13:21:37;;;;;;;11.05;10.75;;;35.60;99.90;;;;;;5050629;28;20524;-81
2023/06/26 13:24:08;;;;;;;10.57;10.27;;;36.00;99.90;;;;;;5048547;28;20232;-81
2023/06/26 13:26:39;;;;;;;10.40;10.10;;;36.10;99.90;;;;;;5047531;28;20243;-81
2023/06/26 13:29:08;;;;;;;10.50;10.20;;;36.00;99.90;;;;;;5047986;28;20242;-82
2023/06/26 13:31:39;;;;;;;10.60;10.30;;;35.40;99.90;;;;;;5049315;28;20258;-81
2023/06/26 13:34:07;;;;;;;10.32;10.02;;;34.90;99.90;;;;;;5046752;28;20237;-80
2023/06/26 13:36:37;;;;;;;10.70;10.40;;;34.60;99.90;;;;;;5045228;28;20267;-81
2023/06/26 13:39:05;;;;;;;10.90;10.60;;;34.20;99.90;;;;;;5046332;28;20299;-81
2023/06/26 13:41:35;;;;;;;10.63;10.32;;;34.00;99.90;;;;;;5046534;28;20239;-81
2023/06/26 13:44:05;;;;;;;10.90;10.60;;;33.80;99.90;;;;;;5045703;28;20327;-81
2023/06/26 13:46:35;;;;;;;10.95;10.65;;;34.10;99.90;;;;;;5046835;28;20246;-81
2023/06/26 13:49:03;;;;;;;11.00;10.70;;;34.50;99.90;;;;;;5047207;28;20327;-81
2023/06/26 13:51:31;;;;;;;10.90;10.60;;;34.60;99.90;;;;;;5047788;28;20326;-81
2023/06/26 13:54:00;;;;;;;10.80;10.50;;;34.50;99.90;;;;;;5047432;28;20239;-81
2023/06/26 13:56:30;;;;;;;10.80;10.50;;;34.70;99.90;;;;;;5047120;28;20215;-81
2023/06/26 13:59:02;;;;;;;10.80;10.50;;;34.50;99.90;;;;;;5047243;28;20309;-81
2023/06/26 14:01:33;;;;;;;10.60;10.30;;;34.30;99.90;;;;;;5048805;28;20330;-81
2023/06/26 14:04:05;;;;;;;10.60;10.30;;;34.20;99.90;;;;;;5049837;28;20243;-81
2023/06/26 14:06:34;;;;;;;10.57;10.27;;;34.40;99.90;;;;;;5050116;28;20274;-82
2023/06/26 14:09:05;;;;;;;10.80;10.50;;;34.30;99.90;;;;;;5056806;28;20235;-80
2023/06/26 14:11:35;;;;;;;10.95;10.65;;;34.00;99.90;;;;;;5054911;28;20235;-80
2023/06/26 14:14:05;;;;;;;10.70;10.40;;;33.40;99.90;;;;;;5057173;28;20258;-79
2023/06/26 14:16:36;;;;;;;10.70;10.40;;;33.40;99.90;;;;;;5060210;28;20234;-80
2023/06/26 14:19:07;;;;;;;10.55;10.25;;;33.90;99.90;;;;;;5059973;28;20223;-82
2023/06/26 14:21:37;;;;;;;10.40;10.10;;;34.10;99.90;;;;;;5056872;28;20228;-79
2023/06/26 14:24:06;;;;;;;10.70;10.40;;;34.10;99.90;;;;;;5056599;28;20235;-79
2023/06/26 14:26:38;;;;;;;10.50;10.20;;;34.10;99.90;;;;;;5057061;28;20249;-80
2023/06/26 14:29:08;;;;;;;10.18;9.88;;;34.20;99.90;;;;;;5057182;28;20250;-80
2023/06/26 14:31:36;;;;;;;10.40;10.10;;;34.20;99.90;;;;;;5055006;28;20215;-82
2023/06/26 14:34:09;;;;;;;10.15;9.85;;;33.90;99.90;;;;;;5056598;28;20255;-79
2023/06/26 14:36:40;;;;;;;10.13;9.82;;;34.00;99.90;;;;;;5057400;28;20215;-79
2023/06/26 14:39:13;;;;;;;10.07;9.77;;;34.20;99.90;;;;;;5047319;28;20266;-79
2023/06/26 14:41:40;;;;;;;10.07;9.77;;;34.40;99.90;;;;;;5044989;28;20242;-79
2023/06/26 14:44:10;;;;;;;10.00;9.70;;;34.70;99.90;;;;;;5044911;28;20283;-80
2023/06/26 14:46:38;;;;;;;10.10;9.80;;;34.70;99.90;;;;;;5044589;28;20231;-81
2023/06/26 14:49:08;;;;;;;10.20;9.90;;;34.60;99.90;;;;;;5045320;28;20247;-81
2023/06/26 14:51:38;;;;;;;9.90;9.60;;;34.50;99.90;;;;;;5045608;28;20266;-81
2023/06/26 14:54:06;;;;;;;9.80;9.50;;;34.60;99.90;;;;;;5043283;28;20235;-80
2023/06/26 14:56:36;;;;;;;9.80;9.50;;;34.50;99.90;;;;;;5045071;28;20227;-81
2023/06/26 14:59:04;;;;;;;10.20;9.90;;;34.20;99.90;;;;;;5045379;28;20232;-80
2023/06/26 15:01:32;;;;;;;10.43;10.13;;;33.70;99.90;;;;;;5046470;28;20294;-81
2023/06/26 15:04:02;;;;;;;10.23;9.93;;;33.50;99.90;;;;;;5045605;28;20247;-79
2023/06/26 15:06:32;;;;;;;10.30;10.00;;;33.40;99.90;;;;;;5044153;28;20334;-80
2023/06/26 15:09:00;;;;;;;10.40;10.10;;;33.20;99.90;;;;;;5043898;28;20228;-79
2023/06/26 15:11:28;;;;;;;10.23;9.93;;;33.10;99.90;;;;;;5042804;28;20289;-79
2023/06/26 15:13:57;;;;;;;10.27;9.98;;;33.00;99.90;;;;;;5048407;28;20235;-81
2023/06/26 15:16:25;;;;;;;10.30;10.00;;;33.20;99.90;;;;;;5043548;28;20239;-80
2023/06/26 15:18:56;;;;;;;10.20;9.90;;;33.20;99.90;;;;;;5043153;28;20239;-83
2023/06/26 15:21:24;;;;;;;10.38;10.07;;;33.10;99.90;;;;;;5044799;28;20369;-83
2023/06/26 15:23:58;;;;;;;10.40;10.10;;;32.70;99.90;;;;;;5042847;28;20309;-81
2023/06/26 15:26:26;;;;;;;10.68;10.38;;;31.90;99.90;;;;;;5041672;28;20286;-82
2023/06/26 15:28:54;;;;;;;10.60;10.30;;;31.40;99.90;;;;;;5043724;28;20291;-82
2023/06/26 15:34:11;;;;;;;10.48;10.18;;;31.30;99.90;;;;;;5101784;22;20245;-92
2023/06/26 15:36:48;;;;;;;10.52;10.23;;;31.40;99.90;;;;;;5063038;28;20215;-90
2023/06/26 15:39:25;;;;;;;10.48;10.18;;;31.10;99.90;;;;;;5053448;28;20238;-90
2023/06/26 15:41:59;;;;;;;10.50;10.20;;;31.10;99.90;;;;;;5037546;28;20244;-90
2023/06/26 15:44:44;;;;;;;10.50;10.20;;;30.90;99.90;;;;;;5022223;28;20235;-89
2023/06/26 15:47:12;;;;;;;10.43;10.13;;;30.90;99.90;;;;;;5023077;28;20232;-90
2023/06/26 15:49:41;;;;;;;10.68;10.38;;;31.00;99.90;;;;;;5022391;28;20225;-88
2023/06/26 15:52:10;;;;;;;10.30;10.00;;;30.90;99.90;;;;;;5021718;28;20242;-88
2023/06/26 15:55:15;;;;;;;10.70;10.40;;;30.80;99.90;;;;;;5022586;28;20263;-89
2023/06/26 15:57:45;;;;;;;10.82;10.52;;;30.70;99.90;;;;;;5021507;28;20227;-89
2023/06/26 16:03:03;;;;;;;10.73;10.43;;;30.70;99.90;;;;;;5019635;28;20279;-89
2023/06/26 16:08:17;;;;;;;11.00;10.70;;;30.70;99.90;;;;;;5037813;28;20347;-90
2023/06/26 16:10:55;;;;;;;10.75;10.45;;;30.20;99.90;;;;;;5040507;28;20216;-88
2023/06/26 16:13:25;;;;;;;11.00;10.70;;;30.00;99.90;;;;;;5035015;28;20271;-88
2023/06/26 16:15:55;;;;;;;10.80;10.50;;;29.90;99.90;;;;;;5021612;28;20236;-86
2023/06/26 16:18:40;;;;;;;10.80;10.50;;;29.90;99.90;;;;;;5021725;28;20282;-86
2023/06/26 16:23:51;;;;;;;10.70;10.40;;;29.70;99.90;;;;;;5024465;28;20274;-89
2023/06/26 16:29:07;;;;;;;10.07;9.77;;;29.80;99.90;;;;;;5023839;28;20216;-87
2023/06/26 16:31:39;;;;;;;10.10;9.80;;;30.00;99.90;;;;;;5024129;28;20282;-86
2023/06/26 16:34:16;;;;;;;10.10;9.80;;;30.10;99.90;;;;;;5023717;28;20298;-87
2023/06/26 16:36:46;;;;;;;10.27;9.98;;;30.30;99.90;;;;;;5024433;28;20235;-89
2023/06/26 16:39:19;;;;;;;10.20;9.90;;;30.30;99.90;;;;;;5024730;28;20240;-88
2023/06/26 16:41:54;;;;;;;10.07;9.77;;;30.30;99.90;;;;;;5024613;28;20243;-89
2023/06/26 16:44:22;;;;;;;10.10;9.80;;;30.40;99.90;;;;;;5023615;28;20255;-88
2023/06/26 16:47:01;;;;;;;10.30;10.00;;;30.30;99.90;;;;;;5024587;28;20238;-88
2023/06/26 16:49:33;;;;;;;10.70;10.40;;;30.40;99.90;;;;;;5024085;28;20231;-88
2023/06/26 16:52:10;;;;;;;11.20;10.90;;;30.60;99.90;;;;;;5023644;28;20232;-88
2023/06/26 16:54:44;;;;;;;10.80;10.50;;;30.70;99.90;;;;;;5023826;28;20247;-88
2023/06/26 16:57:18;;;;;;;10.35;10.05;;;30.60;99.90;;;;;;5023233;28;20231;-87
2023/06/26 16:59:53;;;;;;;10.40;10.10;;;30.50;99.90;;;;;;5023157;28;20224;-85
2023/06/26 17:02:22;;;;;;;10.25;9.95;;;30.20;99.90;;;;;;5023256;28;20239;-88
2023/06/26 17:04:52;;;;;;;10.55;10.25;;;29.90;99.90;;;;;;5036875;28;20235;-87
2023/06/26 17:07:22;;;;;;;10.68;10.38;;;29.70;99.90;;;;;;5042399;28;20278;-89
2023/06/26 17:09:50;;;;;;;10.52;10.23;;;29.20;99.90;;;;;;5042555;28;20224;-87
2023/06/26 17:12:47;;;;;;;10.70;10.40;;;29.10;99.90;;;;;;5039901;28;20290;-87
2023/06/26 17:15:17;;;;;;;10.25;9.95;;;29.10;99.90;;;;;;5027700;28;20231;-86
2023/06/26 17:17:48;;;;;;;10.05;9.75;;;29.00;99.90;;;;;;5025401;28;20228;-86
2023/06/26 17:20:19;;;;;;;10.07;9.77;;;28.90;99.90;;;;;;5024203;28;20225;-88
2023/06/26 17:22:53;;;;;;;10.02;9.73;;;28.90;99.90;;;;;;5031484;28;20270;-88
2023/06/26 17:25:24;;;;;;;9.85;9.55;;;28.80;99.90;;;;;;5042624;28;20242;-86
2023/06/26 17:27:57;;;;;;;9.85;9.55;;;28.90;99.90;;;;;;5042081;28;20259;-87
2023/06/26 17:30:32;;;;;;;10.05;9.75;;;29.00;99.90;;;;;;5041912;28;20242;-87
2023/06/26 17:33:02;;;;;;;9.77;9.48;;;29.10;99.90;;;;;;5033318;28;20242;-86
2023/06/26 17:35:30;;;;;;;10.02;9.73;;;29.10;99.90;;;;;;5022395;28;20263;-87
2023/06/26 17:38:01;;;;;;;9.80;9.50;;;29.10;99.90;;;;;;5025757;28;20223;-87
2023/06/26 17:43:25;;;;;;;10.00;9.70;;;29.20;99.90;;;;;;5032022;28;20299;-87
2023/06/26 17:45:53;;;;;;;10.20;9.90;;;28.90;99.90;;;;;;5027160;28;20232;-87
2023/06/26 17:48:22;;;;;;;10.10;9.80;;;28.60;99.90;;;;;;5025391;28;20290;-88
2023/06/26 17:50:52;;;;;;;10.25;9.95;;;28.50;99.90;;;;;;5033814;28;20319;-88
2023/06/26 17:53:21;;;;;;;10.15;9.85;;;28.30;99.90;;;;;;5033413;28;20231;-87
2023/06/26 17:55:51;;;;;;;10.07;9.77;;;28.20;99.90;;;;;;5026042;28;20236;-88
2023/06/26 17:58:29;;;;;;;10.00;9.70;;;28.10;99.90;;;;;;5047817;28;20296;-87
2023/06/26 18:01:00;;;;;;;9.73;9.43;;;27.90;99.90;;;;;;5041431;28;20188;-90
2023/06/26 18:03:28;;;;;;;9.80;9.50;;;27.90;99.90;;;;;;5041584;28;20216;-87
2023/06/26 18:05:59;;;;;;;9.88;9.57;;;27.70;99.90;;;;;;5037713;28;20227;-87
2023/06/26 18:08:31;;;;;;;9.75;9.45;;;27.60;99.90;;;;;;5031755;28;20250;-89
2023/06/26 18:13:52;;;;;;;9.77;9.48;;;27.40;99.90;;;;;;5024513;28;20255;-87
2023/06/26 18:16:22;;;;;;;9.50;9.20;;;27.30;99.90;;;;;;5023042;28;20251;-88
2023/06/26 18:18:54;;;;;;;9.60;9.30;;;27.30;99.90;;;;;;5023301;28;20235;-88
2023/06/26 18:27:33;;;;;;;9.30;9.00;;;26.90;99.90;;;;;;5047221;28;20250;-88
2023/06/26 18:33:00;;;;;;;9.00;8.80;;;26.60;99.90;;;;;;5023223;28;20239;-89
2023/06/26 18:35:46;;;;;;;9.30;9.00;;;26.50;99.90;;;;;;5042749;28;20310;-90
2023/06/26 18:41:01;;;;;;;9.70;9.40;;;26.20;99.90;;;;;;5042112;28;20234;-88
2023/06/26 18:43:29;;;;;;;9.70;9.40;;;26.10;99.90;;;;;;5042860;28;20290;-87
2023/06/26 18:46:28;;;;;;;9.90;9.60;;;26.10;99.90;;;;;;5043532;28;20258;-85
2023/06/26 18:49:04;;;;;;;9.75;9.45;;;26.00;99.90;;;;;;5035744;28;20248;-87
2023/06/26 18:51:33;;;;;;;9.70;9.40;;;25.90;99.90;;;;;;5023812;28;20234;-88
2023/06/26 18:54:05;;;;;;;9.70;9.40;;;25.80;99.90;;;;;;5042033;28;20279;-88
2023/06/26 18:56:34;;;;;;;9.68;9.38;;;25.70;99.90;;;;;;5043603;28;20283;-88
2023/06/26 18:59:04;;;;;;;9.50;9.20;;;25.70;99.90;;;;;;5043036;28;20223;-88
2023/06/26 19:01:41;;;;;;;9.73;9.43;;;25.60;99.90;;;;;;5028308;28;20307;-88
2023/06/26 19:04:09;;;;;;;9.48;9.18;;;25.40;99.90;;;;;;5047507;28;20230;-88
2023/06/26 19:06:38;;;;;;;9.73;9.43;;;25.30;99.90;;;;;;5047560;28;20227;-90
2023/06/26 19:09:08;;;;;;;9.60;9.30;;;25.20;99.90;;;;;;5055729;28;20255;-88
2023/06/26 19:11:37;;;;;;;9.85;9.55;;;25.10;99.90;;;;;;5050929;28;20284;-87
2023/06/26 19:14:07;;;;;;;9.50;9.20;;;25.10;99.90;;;;;;5044886;28;20282;-87
2023/06/26 19:16:45;;;;;;;9.82;9.52;;;25.00;99.90;;;;;;5043634;28;20246;-88
2023/06/26 19:19:15;;;;;;;9.73;9.43;;;25.00;99.90;;;;;;5048819;28;20246;-88
2023/06/26 19:21:44;;;;;;;9.80;9.50;;;24.90;99.90;;;;;;5052569;28;20238;-88
2023/06/26 19:24:14;;;;;;;10.00;9.70;;;24.80;99.90;;;;;;5048035;28;20251;-87
2023/06/26 19:26:43;;;;;;;9.77;9.48;;;24.80;99.90;;;;;;5042329;28;20227;-88